Walhalla, SC (29691)

11:08 PM EST die 21o December, anno 2014 (GMT -0500)
West Walhalla (Near Library) KelBren | Change Station
CLOSE
Current Station
Personal Weather Stations
Location: Walhalla, SC
Elevation: 1060 ft
Nearby Weather Stations

Elev 1060 ft 34.76 °N, 83.07 °W | Updated 2 minutes ago

Aequaliter Nubila
Aequaliter Nubila
45.5 °F
Feels Like 46 °F
N
0.0
Ventus Variabilis Ventus from Zephyrus

Hodie
High -- | Low -- °F
--% Chance of Precip.
Yesterday
High -- | Low -- °F
Precip. -- in
7:35 AM 5:25 PM
New, 0% visible
Pressio 30.16 in
Visibilitas 8.0 milia passuum
Clouds Aequaliter Nubila 2700 ft
Frigus Venti 46 °F
Frigus in quo Ros apparet 39 °F
Umor 77%
Rainfall 0.00 in
Snow Depth Not available.
UV 0 out of 12
Pollen 1.20 out of 12
Air Quality Not available.
Flu Activity Not available.
METAR KCEU 220354Z AUTO 07008KT 8SM -RA OVC027 09/04 A3016 RMK AO2 RAB17 SLP213 P0000 T00890039

More Conditions Fewer Conditions

Pressio 30.16 in
Visibilitas 8.0 milia passuum
Clouds Aequaliter Nubila 2700 ft
Frigus Venti 46 °F
Frigus in quo Ros apparet 39 °F
Umor 77%
Rainfall 0.00 in
Snow Depth Not available.
UV 0 out of 12
Pollen 1.20 out of 12
Air Quality Not available.
Flu Activity Not available.
METAR KCEU 220354Z AUTO 07008KT 8SM -RA OVC027 09/04 A3016 RMK AO2 RAB17 SLP213 P0000 T00890039

More Conditions Fewer Conditions

10-Day Weather Forecast

Almanac

Astronomy

Dec. 21, 2014 Rise Set
Actual Time
Civil Twilight
Nautical Twilight
Astronomical Twilight
Moon
Length Of Visible Light
Length of Day
Tomorrow will be .
, % of the Moon is Illuminated

Today's Extremes

State Highs State Lows

Community

WunderPhotos

Upload Photos

1,779,534 photos uploaded!

WunderBlogs® & News

Nearby

Air Quality

  Air Quality AQ Index Pollutant
Not available.

Snow Depth

Station Depth Elevation

Earthquake Activity

City Distance Mag. Time & Date
Minimum magnitude displayed is 2.5.

Coastal Water Temperatures

Locus Calor

Nearby Weather Stations